createdAt,value
2018-12-26T00:00:08.039Z,40.30
2018-12-26T00:02:37.635Z,40.87
2018-12-26T00:05:06.862Z,39.20
2018-12-26T00:07:36.900Z,34.53
2018-12-26T00:10:06.480Z,34.17
2018-12-26T00:12:36.312Z,35.67
2018-12-26T00:15:05.905Z,33.57
2018-12-26T00:17:35.402Z,36.93
2018-12-26T00:20:05.146Z,38.80
2018-12-26T00:22:35.826Z,37.23
2018-12-26T00:25:05.626Z,41.63
2018-12-26T00:27:35.255Z,43.53
2018-12-26T00:30:04.852Z,44.13
2018-12-26T00:32:34.331Z,46.00
2018-12-26T00:35:03.809Z,48.87
2018-12-26T00:37:33.339Z,47.00
2018-12-26T00:40:02.845Z,44.67
2018-12-26T00:42:32.337Z,41.93
2018-12-26T00:45:01.793Z,45.50
2018-12-26T00:47:31.549Z,41.43
2018-12-26T00:50:00.771Z,46.77
2018-12-26T00:52:29.993Z,40.53
2018-12-26T00:54:59.471Z,43.17
2018-12-26T00:57:28.715Z,38.67
2018-12-26T00:59:58.184Z,44.80
2018-12-26T01:02:27.741Z,41.13
2018-12-26T01:04:57.497Z,38.27
2018-12-26T01:07:27.652Z,34.23
2018-12-26T01:09:57.119Z,46.50
2018-12-26T01:12:26.311Z,39.60
2018-12-26T01:14:55.789Z,35.93
2018-12-26T01:17:25.247Z,36.80
2018-12-26T01:19:55.091Z,38.40
2018-12-26T01:22:25.451Z,36.67
2018-12-26T01:24:54.958Z,33.80
2018-12-26T01:27:24.152Z,35.47
2018-12-26T01:29:53.651Z,37.40
2018-12-26T01:32:23.104Z,42.53
2018-12-26T01:34:52.588Z,38.23
2018-12-26T01:37:22.056Z,41.00
2018-12-26T01:39:51.925Z,33.40
2018-12-26T01:42:21.115Z,29.60
2018-12-26T01:44:50.697Z,36.43
2018-12-26T01:47:20.157Z,39.90
2018-12-26T01:49:49.633Z,35.17
2018-12-26T01:52:19.102Z,35.60
2018-12-26T01:54:48.702Z,34.73
2018-12-26T01:57:18.270Z,35.23
2018-12-26T01:59:47.758Z,32.00
2018-12-26T02:02:17.344Z,36.13
2018-12-26T02:04:46.575Z,34.00
2018-12-26T02:07:16.359Z,30.80
2018-12-26T02:09:46.121Z,32.50
2018-12-26T02:12:16.413Z,32.87
2018-12-26T02:14:45.886Z,33.37
2018-12-26T02:17:15.363Z,31.07
2018-12-26T02:19:44.941Z,31.37
2018-12-26T02:22:14.169Z,35.50
2018-12-26T02:24:43.683Z,31.90
2018-12-26T02:27:13.535Z,28.57
2018-12-26T02:29:43.012Z,33.13
2018-12-26T02:32:12.595Z,29.77
2018-12-26T02:34:42.340Z,27.50
2018-12-26T02:37:12.409Z,28.53
2018-12-26T02:39:41.609Z,32.00
2018-12-26T02:44:46.095Z,25.47
2018-12-26T02:47:15.880Z,30.20
2018-12-26T02:49:45.693Z,27.40
2018-12-26T02:52:14.898Z,28.90
2018-12-26T02:54:44.091Z,30.23
2018-12-26T02:57:13.830Z,28.47
2018-12-26T02:59:43.413Z,26.43
2018-12-26T03:02:12.920Z,26.97
2018-12-26T03:04:43.099Z,28.00
2018-12-26T03:07:12.728Z,28.30
2018-12-26T03:09:42.231Z,26.60
2018-12-26T03:12:11.718Z,30.30
2018-12-26T03:14:41.156Z,32.57
2018-12-26T03:17:10.656Z,31.50
2018-12-26T03:19:40.434Z,29.13
2018-12-26T03:22:09.642Z,32.15
2018-12-26T03:24:39.373Z,33.53
2018-12-26T03:27:08.620Z,28.47
2018-12-26T03:29:38.090Z,26.00
2018-12-26T03:32:07.333Z,28.37
2018-12-26T03:34:36.511Z,26.20
2018-12-26T03:37:06.552Z,29.20
2018-12-26T03:39:36.004Z,27.57
2018-12-26T03:42:05.337Z,27.57
2018-12-26T03:45:13.915Z,24.90
2018-12-26T03:48:22.521Z,25.67
2018-12-26T03:50:52.297Z,29.50
2018-12-26T03:53:21.885Z,26.53
2018-12-26T03:55:51.433Z,28.13
2018-12-26T03:58:20.926Z,24.10
2018-12-26T04:00:50.136Z,25.70
2018-12-26T04:03:19.952Z,22.47
2018-12-26T04:05:49.147Z,25.43
2018-12-26T04:08:19.638Z,22.30
2018-12-26T04:13:57.785Z,18.73
2018-12-26T04:16:26.981Z,19.53
2018-12-26T04:18:56.477Z,18.80
2018-12-26T04:21:26.147Z,17.20
2018-12-26T04:23:55.723Z,20.13
2018-12-26T04:26:25.476Z,16.13
2018-12-26T04:28:54.969Z,16.33
2018-12-26T04:31:24.151Z,15.20
2018-12-26T04:33:53.377Z,15.53
2018-12-26T04:36:23.011Z,16.90
2018-12-26T04:38:52.793Z,17.07
2018-12-26T04:41:22.658Z,16.90
2018-12-26T04:43:52.114Z,18.57
2018-12-26T04:46:21.886Z,17.20
2018-12-26T04:48:51.359Z,17.50
2018-12-26T04:51:20.816Z,18.13
2018-12-26T04:53:50.284Z,18.63
2018-12-26T04:56:19.771Z,16.83
2018-12-26T04:58:49.273Z,23.50
2018-12-26T05:01:19.009Z,22.23
2018-12-26T05:03:48.792Z,22.03
2018-12-26T05:06:18.269Z,21.47
2018-12-26T05:08:48.059Z,21.90
2018-12-26T05:11:17.642Z,25.10
2018-12-26T05:13:47.125Z,24.80
2018-12-26T05:16:16.612Z,23.23
2018-12-26T05:18:45.826Z,24.50
2018-12-26T05:21:15.022Z,22.07
2018-12-26T05:23:44.238Z,23.63
2018-12-26T05:26:13.444Z,21.50
2018-12-26T05:28:42.673Z,19.93
2018-12-26T05:31:11.850Z,23.80
2018-12-26T05:33:41.073Z,22.93
2018-12-26T05:36:10.265Z,20.63
2018-12-26T05:38:39.473Z,23.20
2018-12-26T05:41:08.661Z,20.83
2018-12-26T05:43:37.885Z,20.37
2018-12-26T05:46:07.376Z,21.80
2018-12-26T05:48:36.586Z,22.07
2018-12-26T05:51:06.101Z,27.77
2018-12-26T05:53:35.318Z,25.37
2018-12-26T05:56:04.509Z,22.47
2018-12-26T05:58:33.714Z,21.73
2018-12-26T06:01:02.912Z,28.13
2018-12-26T06:03:32.117Z,24.77
2018-12-26T06:06:01.323Z,24.03
2018-12-26T06:08:30.733Z,25.60
2018-12-26T06:10:59.919Z,24.23
2018-12-26T06:13:29.183Z,25.87
2018-12-26T06:15:58.407Z,26.73
2018-12-26T06:18:27.625Z,20.57
2018-12-26T06:20:56.845Z,20.67
2018-12-26T06:23:26.068Z,21.90
2018-12-26T06:25:55.293Z,22.30
2018-12-26T06:28:24.509Z,24.00
2018-12-26T06:30:53.711Z,21.20
2018-12-26T06:33:23.224Z,19.47
2018-12-26T06:35:52.435Z,16.90
2018-12-26T06:38:21.642Z,18.97
2018-12-26T06:40:50.835Z,18.00
2018-12-26T06:43:20.313Z,17.93
2018-12-26T06:45:49.498Z,19.53
2018-12-26T06:48:18.710Z,23.40
2018-12-26T06:50:47.916Z,21.23
2018-12-26T06:53:17.154Z,22.77
2018-12-26T06:55:46.365Z,20.90
2018-12-26T06:58:15.583Z,20.50
2018-12-26T07:00:44.767Z,17.47
2018-12-26T07:03:13.977Z,22.63
2018-12-26T07:05:43.164Z,22.57
2018-12-26T07:08:12.387Z,21.23
2018-12-26T07:10:41.568Z,21.40
2018-12-26T07:13:10.805Z,23.87
2018-12-26T07:15:39.985Z,20.63
2018-12-26T07:18:09.207Z,22.10
2018-12-26T07:20:38.423Z,22.67
2018-12-26T07:23:07.641Z,26.80
2018-12-26T07:25:36.890Z,25.87
2018-12-26T07:28:09.299Z,22.80
2018-12-26T07:30:56.092Z,23.70
2018-12-26T07:33:25.306Z,23.77
2018-12-26T07:36:13.493Z,26.73
2018-12-26T07:38:42.711Z,22.83
2018-12-26T07:41:11.902Z,24.10
2018-12-26T07:43:41.104Z,25.67
2018-12-26T07:46:10.299Z,27.87
2018-12-26T07:48:39.521Z,26.37
2018-12-26T07:51:08.718Z,21.30
2018-12-26T07:53:37.978Z,26.77
2018-12-26T07:56:07.191Z,30.00
2018-12-26T08:01:33.157Z,23.63
2018-12-26T08:04:02.374Z,24.43
2018-12-26T08:06:31.563Z,21.93
2018-12-26T08:09:00.768Z,21.17
2018-12-26T08:11:30.233Z,23.00
2018-12-26T08:13:59.448Z,23.37
2018-12-26T08:16:28.649Z,21.77
2018-12-26T08:18:57.850Z,21.70
2018-12-26T08:21:27.064Z,20.70
2018-12-26T08:23:56.539Z,19.57
2018-12-26T08:26:25.750Z,18.70
2018-12-26T08:28:54.957Z,21.00
2018-12-26T08:34:12.909Z,22.27
2018-12-26T08:36:42.095Z,19.50
2018-12-26T08:39:11.588Z,19.70
2018-12-26T08:41:40.803Z,16.37
2018-12-26T08:44:10.013Z,19.10
2018-12-26T08:46:39.500Z,16.73
2018-12-26T08:49:08.735Z,16.73
2018-12-26T08:51:37.926Z,21.07
2018-12-26T08:54:07.151Z,19.70
2018-12-26T08:56:36.348Z,18.60
2018-12-26T08:59:05.558Z,15.47
2018-12-26T09:01:35.009Z,15.10
2018-12-26T09:04:04.251Z,15.40
2018-12-26T09:06:33.437Z,13.43
2018-12-26T09:14:12.268Z,14.73
2018-12-26T09:16:41.479Z,15.13
2018-12-26T09:19:10.698Z,14.33
2018-12-26T09:21:39.906Z,15.00
2018-12-26T09:24:09.121Z,17.23
2018-12-26T09:26:39.843Z,14.27
2018-12-26T09:29:09.070Z,15.30
2018-12-26T09:31:38.266Z,17.83
2018-12-26T09:34:07.987Z,17.60
2018-12-26T09:36:37.486Z,14.53
2018-12-26T09:39:08.054Z,13.37
2018-12-26T09:41:37.271Z,16.47
2018-12-26T09:44:06.453Z,16.67
2018-12-26T09:46:36.086Z,17.60
2018-12-26T09:49:05.285Z,16.97
2018-12-26T09:51:34.511Z,16.00
2018-12-26T09:54:03.698Z,14.80
2018-12-26T09:56:32.916Z,15.13
2018-12-26T09:59:02.112Z,15.23
2018-12-26T10:01:31.354Z,15.30
2018-12-26T10:04:00.547Z,16.03
2018-12-26T10:06:29.762Z,15.90
2018-12-26T10:08:59.217Z,16.10
2018-12-26T10:11:28.699Z,14.43
2018-12-26T10:13:57.893Z,17.47
2018-12-26T10:16:27.150Z,19.60
2018-12-26T10:18:56.343Z,15.13
2018-12-26T10:21:25.563Z,14.50
2018-12-26T10:24:13.778Z,14.87
2018-12-26T10:26:43.288Z,12.77
2018-12-26T10:29:12.746Z,14.70
2018-12-26T10:31:42.228Z,14.30
2018-12-26T10:34:11.427Z,14.03
2018-12-26T10:36:40.642Z,15.10
2018-12-26T10:39:09.837Z,16.43
2018-12-26T10:41:39.078Z,13.57
2018-12-26T10:44:08.259Z,12.83
2018-12-26T10:46:37.463Z,14.17
2018-12-26T10:49:06.653Z,12.83
2018-12-26T10:51:35.860Z,11.83
2018-12-26T10:54:05.045Z,13.43
2018-12-26T10:56:34.245Z,12.37
2018-12-26T10:59:09.967Z,13.83
2018-12-26T11:01:34.964Z,13.43
2018-12-26T11:04:04.161Z,13.90
2018-12-26T11:06:33.487Z,14.00
2018-12-26T11:09:02.933Z,13.47
2018-12-26T11:11:32.413Z,13.77
2018-12-26T11:14:01.623Z,16.17
2018-12-26T11:16:30.964Z,16.80
2018-12-26T11:19:00.590Z,13.63
2018-12-26T11:21:30.046Z,13.23
2018-12-26T11:23:59.252Z,12.77
2018-12-26T11:26:28.585Z,13.87
2018-12-26T11:28:58.025Z,12.87
2018-12-26T11:31:27.211Z,13.87
2018-12-26T11:33:56.806Z,12.20
2018-12-26T11:36:26.000Z,12.50
2018-12-26T11:38:55.322Z,12.23
2018-12-26T11:41:24.525Z,13.27
2018-12-26T11:43:53.949Z,10.67
2018-12-26T11:46:23.155Z,11.30
2018-12-26T11:48:52.670Z,9.13
2018-12-26T11:51:22.227Z,10.33
2018-12-26T11:53:51.693Z,9.00
2018-12-26T11:56:20.884Z,9.73
2018-12-26T11:58:50.103Z,10.50
2018-12-26T12:01:19.285Z,8.33
2018-12-26T12:03:48.503Z,10.93
2018-12-26T12:06:17.699Z,13.10
2018-12-26T12:08:47.208Z,13.87
2018-12-26T12:11:16.402Z,12.33
2018-12-26T12:13:45.884Z,11.23
2018-12-26T12:16:15.074Z,10.40
2018-12-26T12:18:44.368Z,9.97
2018-12-26T12:21:13.804Z,8.23
2018-12-26T12:23:43.295Z,10.73
2018-12-26T12:26:12.526Z,7.93
2018-12-26T12:28:41.725Z,8.80
2018-12-26T12:31:11.453Z,9.20
2018-12-26T12:33:41.004Z,8.47
2018-12-26T12:36:12.973Z,8.47
2018-12-26T12:38:42.112Z,8.20
2018-12-26T12:41:11.314Z,8.13
2018-12-26T12:43:40.500Z,10.27
2018-12-26T12:46:09.804Z,7.87
2018-12-26T12:48:38.985Z,8.07
2018-12-26T12:51:08.186Z,8.57
2018-12-26T12:53:37.382Z,8.53
2018-12-26T12:56:11.754Z,8.13
2018-12-26T12:58:37.700Z,6.83
2018-12-26T13:01:07.167Z,7.43
2018-12-26T13:03:36.621Z,6.50
2018-12-26T13:06:05.806Z,7.30
2018-12-26T13:08:34.990Z,6.83
2018-12-26T13:11:04.576Z,6.60
2018-12-26T13:13:33.867Z,5.80
2018-12-26T13:16:03.094Z,6.60
2018-12-26T13:18:32.287Z,6.60
2018-12-26T13:21:01.488Z,6.77
2018-12-26T13:23:30.925Z,7.30
2018-12-26T13:26:00.419Z,6.00
2018-12-26T13:28:29.606Z,7.63
2018-12-26T13:31:04.983Z,7.10
2018-12-26T13:36:21.022Z,6.93
2018-12-26T13:38:50.200Z,6.37
2018-12-26T13:41:19.411Z,6.67
2018-12-26T13:43:48.596Z,7.87
2018-12-26T13:46:17.803Z,6.57
2018-12-26T13:48:46.984Z,7.13
2018-12-26T13:51:16.475Z,5.77
2018-12-26T13:53:45.652Z,6.17
2018-12-26T13:56:14.866Z,5.90
2018-12-26T13:58:44.050Z,6.70
2018-12-26T14:01:13.249Z,5.83
2018-12-26T14:03:42.698Z,7.33
2018-12-26T14:06:11.906Z,7.37
2018-12-26T14:08:41.094Z,8.73
2018-12-26T14:11:10.334Z,6.83
2018-12-26T14:13:39.509Z,6.50
2018-12-26T14:16:08.736Z,7.90
2018-12-26T14:18:38.243Z,6.17
2018-12-26T14:21:07.469Z,6.50
2018-12-26T14:23:36.936Z,6.87
2018-12-26T14:26:06.419Z,6.87
2018-12-26T14:28:35.627Z,8.23
2018-12-26T14:31:04.838Z,7.30
2018-12-26T14:33:34.069Z,8.60
2018-12-26T14:36:03.518Z,9.33
2018-12-26T14:38:32.758Z,7.37
2018-12-26T14:41:02.245Z,6.93
2018-12-26T14:43:31.494Z,6.90
2018-12-26T14:46:00.698Z,8.23
2018-12-26T14:48:29.924Z,7.80
2018-12-26T14:50:59.118Z,8.80
2018-12-26T14:53:28.339Z,10.40
2018-12-26T14:55:57.518Z,7.60
2018-12-26T14:58:26.842Z,6.90
2018-12-26T15:00:56.286Z,9.10
2018-12-26T15:03:25.529Z,8.10
2018-12-26T15:05:54.993Z,8.57
2018-12-26T15:08:24.184Z,8.07
2018-12-26T15:10:53.636Z,8.97
2018-12-26T15:13:22.829Z,7.93
2018-12-26T15:15:52.022Z,8.07
2018-12-26T15:18:21.271Z,10.33
2018-12-26T15:20:50.491Z,8.10
2018-12-26T15:23:19.813Z,10.23
2018-12-26T15:25:49.031Z,8.57
2018-12-26T15:28:18.227Z,8.50
2018-12-26T15:30:47.402Z,9.27
2018-12-26T15:33:16.607Z,9.73
2018-12-26T15:35:45.791Z,8.33
2018-12-26T15:38:15.261Z,9.93
2018-12-26T15:40:44.455Z,9.17
2018-12-26T15:43:13.681Z,11.33
2018-12-26T15:45:42.879Z,10.67
2018-12-26T15:48:12.110Z,10.37
2018-12-26T15:50:41.558Z,9.47
2018-12-26T15:53:10.776Z,10.17
2018-12-26T15:55:39.985Z,11.83
2018-12-26T15:58:09.224Z,10.63
2018-12-26T16:00:38.420Z,8.67
2018-12-26T16:03:07.621Z,11.10
2018-12-26T16:05:37.146Z,11.30
2018-12-26T16:08:06.360Z,12.60
2018-12-26T16:10:35.570Z,10.23
2018-12-26T16:13:05.384Z,11.50
2018-12-26T16:15:34.599Z,10.77
2018-12-26T16:18:03.789Z,8.80
2018-12-26T16:20:33.341Z,10.30
2018-12-26T16:23:02.562Z,9.93
2018-12-26T16:25:31.764Z,9.07
2018-12-26T16:28:01.022Z,9.17
2018-12-26T16:30:30.219Z,10.83
2018-12-26T16:32:59.413Z,9.30
2018-12-26T16:35:29.172Z,12.43
2018-12-26T16:38:01.599Z,9.50
2018-12-26T16:40:29.383Z,10.47
2018-12-26T16:42:58.574Z,12.00
2018-12-26T16:45:27.780Z,10.93
2018-12-26T16:47:56.973Z,12.40
2018-12-26T16:50:45.259Z,11.20
2018-12-26T16:53:14.451Z,10.00
2018-12-26T16:56:02.595Z,10.70
2018-12-26T16:58:31.801Z,13.37
2018-12-26T17:01:01.309Z,14.67
2018-12-26T17:03:32.782Z,11.33
2018-12-26T17:06:02.011Z,14.73
2018-12-26T17:08:31.202Z,12.97
2018-12-26T17:11:00.410Z,18.37
2018-12-26T17:13:29.624Z,20.17
2018-12-26T17:15:58.871Z,21.43
2018-12-26T17:18:28.079Z,18.57
2018-12-26T17:20:57.296Z,15.90
2018-12-26T17:23:26.525Z,15.13
2018-12-26T17:25:55.737Z,13.27
2018-12-26T17:28:24.961Z,13.87
2018-12-26T17:30:54.228Z,11.73
2018-12-26T17:33:23.688Z,16.77
2018-12-26T17:35:53.184Z,19.30
2018-12-26T17:38:22.372Z,28.90
2018-12-26T17:40:58.813Z,28.27
2018-12-26T17:43:27.994Z,17.77
2018-12-26T17:45:57.209Z,20.60
2018-12-26T17:48:26.402Z,20.67
2018-12-26T17:50:55.719Z,14.40
2018-12-26T17:54:02.951Z,17.23
2018-12-26T17:57:10.211Z,15.70
2018-12-26T18:00:04.560Z,21.63
2018-12-26T18:02:40.696Z,17.77
2018-12-26T18:05:09.884Z,14.30
2018-12-26T18:07:39.106Z,13.77
2018-12-26T18:10:09.724Z,18.40
2018-12-26T18:12:38.956Z,15.07
2018-12-26T18:15:10.718Z,17.53
2018-12-26T18:17:40.054Z,15.93
2018-12-26T18:20:10.753Z,15.63
2018-12-26T18:22:40.002Z,15.33
2018-12-26T18:25:09.307Z,19.07
2018-12-26T18:27:38.812Z,22.10
2018-12-26T18:30:11.698Z,16.07
2018-12-26T18:32:41.042Z,17.97
2018-12-26T18:35:11.189Z,18.07
2018-12-26T18:37:40.674Z,19.93
2018-12-26T18:40:09.917Z,22.37
2018-12-26T18:42:39.428Z,17.93
2018-12-26T18:45:09.449Z,17.30
2018-12-26T18:47:39.205Z,18.03
2018-12-26T18:50:10.710Z,16.07
2018-12-26T18:52:40.174Z,17.80
2018-12-26T18:55:09.798Z,17.23
2018-12-26T18:57:38.992Z,19.00
2018-12-26T19:00:11.434Z,17.83
2018-12-26T19:02:40.943Z,16.70
2018-12-26T19:05:11.454Z,18.67
2018-12-26T19:07:41.221Z,20.63
2018-12-26T19:10:11.407Z,18.83
2018-12-26T19:12:40.977Z,15.93
2018-12-26T19:15:10.464Z,18.63
2018-12-26T19:17:39.666Z,17.43
2018-12-26T19:20:10.592Z,15.13
2018-12-26T19:22:39.791Z,17.87
2018-12-26T19:25:09.020Z,15.83
2018-12-26T19:27:38.509Z,15.67
2018-12-26T19:30:11.125Z,14.80
2018-12-26T19:32:40.596Z,15.77
2018-12-26T19:35:28.892Z,17.10
2018-12-26T19:37:58.346Z,19.80
2018-12-26T19:40:27.566Z,21.47
2018-12-26T19:42:57.039Z,20.17
2018-12-26T19:45:26.547Z,17.97
2018-12-26T19:47:56.081Z,20.67
2018-12-26T19:50:25.616Z,20.63
2018-12-26T19:52:55.109Z,18.13
2018-12-26T19:55:24.866Z,22.87
2018-12-26T19:57:54.099Z,21.17
2018-12-26T20:00:42.675Z,19.30
2018-12-26T20:03:11.864Z,20.00
2018-12-26T20:08:15.575Z,19.70
2018-12-26T20:10:44.821Z,17.83
2018-12-26T20:13:14.053Z,17.90
2018-12-26T20:15:43.575Z,20.33
2018-12-26T20:18:12.777Z,17.07
2018-12-26T20:20:42.057Z,16.77
2018-12-26T20:23:11.651Z,16.90
2018-12-26T20:25:41.211Z,18.33
2018-12-26T20:28:10.452Z,17.63
2018-12-26T20:30:39.763Z,17.50
2018-12-26T20:33:09.088Z,17.80
2018-12-26T20:35:38.391Z,17.57
2018-12-26T20:38:07.613Z,18.83
2018-12-26T20:40:36.884Z,16.30
2018-12-26T20:43:06.096Z,16.83
2018-12-26T20:45:35.357Z,15.40
2018-12-26T20:48:04.931Z,16.90
2018-12-26T20:50:34.209Z,16.67
2018-12-26T20:53:03.395Z,16.20
2018-12-26T20:55:32.683Z,15.23
2018-12-26T20:58:01.967Z,17.20
2018-12-26T21:00:31.365Z,16.67
2018-12-26T21:03:00.941Z,15.17
2018-12-26T21:05:31.606Z,16.80
2018-12-26T21:08:01.208Z,16.97
2018-12-26T21:10:30.490Z,15.57
2018-12-26T21:12:59.758Z,16.53
2018-12-26T21:15:29.235Z,15.27
2018-12-26T21:18:18.283Z,17.97
2018-12-26T21:20:49.485Z,14.90
2018-12-26T21:23:18.511Z,18.27
2018-12-26T21:25:48.423Z,17.30
2018-12-26T21:28:17.663Z,16.90
2018-12-26T21:30:47.430Z,13.30
2018-12-26T21:33:17.052Z,15.73
2018-12-26T21:36:05.317Z,14.83
2018-12-26T21:38:34.549Z,14.97
2018-12-26T21:41:03.737Z,14.87
2018-12-26T21:43:33.270Z,14.30
2018-12-26T21:46:02.599Z,13.53
2018-12-26T21:48:32.335Z,13.13
2018-12-26T21:51:01.529Z,13.20
2018-12-26T21:53:31.015Z,14.57
2018-12-26T21:56:00.210Z,15.33
2018-12-26T21:58:29.459Z,14.37
2018-12-26T22:00:59.373Z,13.43
2018-12-26T22:03:28.531Z,12.80
2018-12-26T22:05:58.610Z,11.90
2018-12-26T22:08:27.846Z,12.60
2018-12-26T22:10:57.055Z,13.80
2018-12-26T22:13:26.280Z,14.10
2018-12-26T22:15:55.469Z,15.03
2018-12-26T22:18:24.695Z,15.00
2018-12-26T22:20:53.925Z,12.50
2018-12-26T22:23:42.342Z,12.90
2018-12-26T22:26:11.525Z,14.10
2018-12-26T22:28:40.773Z,13.00
2018-12-26T22:31:09.970Z,10.30
2018-12-26T22:33:39.584Z,14.07
2018-12-26T22:36:08.739Z,12.80
2018-12-26T22:38:56.950Z,12.87
2018-12-26T22:41:26.143Z,13.43
2018-12-26T22:46:30.263Z,13.20
2018-12-26T22:48:59.496Z,13.00
2018-12-26T22:51:28.751Z,11.13
2018-12-26T22:53:57.970Z,13.23
2018-12-26T22:56:27.165Z,10.87
2018-12-26T22:58:56.755Z,13.90
2018-12-26T23:01:26.018Z,12.40
2018-12-26T23:03:55.276Z,12.17
2018-12-26T23:06:24.466Z,13.33
2018-12-26T23:08:53.689Z,11.27
2018-12-26T23:11:22.886Z,13.77
2018-12-26T23:13:52.375Z,12.23
2018-12-26T23:16:21.711Z,12.53
2018-12-26T23:18:50.926Z,13.87
2018-12-26T23:21:20.116Z,13.23
2018-12-26T23:23:49.697Z,13.57
2018-12-26T23:26:19.219Z,11.63
2018-12-26T23:28:48.538Z,13.57
2018-12-26T23:31:17.667Z,12.90
2018-12-26T23:33:46.885Z,13.00
2018-12-26T23:36:16.366Z,11.33
2018-12-26T23:38:45.918Z,10.57
2018-12-26T23:41:15.130Z,11.83
2018-12-26T23:43:44.388Z,12.07
2018-12-26T23:46:13.586Z,12.47
2018-12-26T23:48:43.115Z,12.17
2018-12-26T23:51:12.310Z,13.60
2018-12-26T23:53:41.511Z,11.83
2018-12-26T23:56:10.729Z,13.17
2018-12-26T23:58:39.921Z,13.07
